KCCY/CCY METAR and TAF weather

Enter ICAO airport designator
Station Type Date Time Source
KCCY METAR 2020/02/21 16:15 UTC NOAA

KCCY 211615Z AUTO 21016G23KT 10SM CLR M04/M10 A3038 RMK AO2


Station Type Date Time Source
KCCY Decoded METAR 2020/02/21 16:15 UTC NOAA

Charles City, IA, United States (KCCY) 43-04N 092-37W
Feb 21, 2020 - 11:15 AM EST / 2020.02.21 1615 UTC
Wind: from the SSW (210 degrees) at 18 MPH (16 KT) gusting to 26 MPH (23 KT):0
Visibility: 10 mile(s):0
Sky conditions: clear
Temperature: 24 F (-4 C)
Windchill: 10 F (-12 C):1
Dew Point: 14 F (-10 C)
Relative Humidity: 62%
Pressure (altimeter): 30.38 in. Hg (1028 hPa)
ob: KCCY 211615Z AUTO 21016G23KT 10SM CLR M04/M10 A3038 RMK AO2
cycle: 16

Station Type Date Time Source
KCCY TAF UTC NOAA

Error!

Example: see airport list